Time,TemperatureF,DewpointF,PressureIn,WindDirection,WindDirectionDegrees,WindSpeedMPH,WindSpeedGustMPH,Humidity,HourlyPrecipIn,Conditions,Clouds,dailyrainin,SoftwareType,DateUTC
2013-06-30 00:02:00,64.4,56.7,29.88,West,279,0.0,1.0,76,0.00,,,0.00,meteohub,2013-06-30 07:02:00,
2013-06-30 00:07:00,64.4,56.7,29.87,West,279,1.0,1.0,76,0.00,,,0.00,meteohub,2013-06-30 07:07:00,
2013-06-30 00:12:00,64.2,56.5,29.87,West,279,0.0,3.0,76,0.00,,,0.00,meteohub,2013-06-30 07:12:00,
2013-06-30 00:17:00,64.2,56.5,29.88,West,279,0.0,3.0,76,0.00,,,0.00,meteohub,2013-06-30 07:17:00,
2013-06-30 00:22:00,64.2,56.5,29.87,West,279,0.0,3.0,76,0.00,,,0.00,meteohub,2013-06-30 07:22:00,
2013-06-30 00:27:00,64.4,56.7,29.87,West,279,0.0,3.0,76,0.00,,,0.00,meteohub,2013-06-30 07:27:00,
2013-06-30 00:32:00,64.2,56.5,29.87,West,279,0.0,3.0,76,0.00,,,0.00,meteohub,2013-06-30 07:32:00,
2013-06-30 00:37:00,64.6,56.8,29.87,West,279,0.0,1.0,76,0.00,,,0.00,meteohub,2013-06-30 07:37:00,
2013-06-30 00:42:00,64.6,56.8,29.87,West,279,0.0,1.0,76,0.00,,,0.00,meteohub,2013-06-30 07:42:00,
2013-06-30 00:47:00,64.6,56.8,29.87,West,279,0.0,1.0,76,0.00,,,0.00,meteohub,2013-06-30 07:47:00,
2013-06-30 00:52:00,64.0,55.9,29.87,West,279,0.0,4.0,75,0.00,,,0.00,meteohub,2013-06-30 07:52:00,
2013-06-30 00:57:00,63.9,56.1,29.87,West,279,0.0,4.0,76,0.00,,,0.00,meteohub,2013-06-30 07:57:00,
2013-06-30 01:02:00,63.9,56.5,29.87,West,279,0.0,4.0,77,0.00,,,0.00,meteohub,2013-06-30 08:02:00,
2013-06-30 01:07:00,63.3,55.9,29.87,West,279,1.0,4.0,77,0.00,,,0.00,meteohub,2013-06-30 08:07:00,
2013-06-30 01:12:00,63.3,56.3,29.87,West,279,0.0,4.0,78,0.00,,,0.00,meteohub,2013-06-30 08:12:00,
2013-06-30 01:17:00,63.1,56.1,29.87,West,279,1.0,4.0,78,0.00,,,0.00,meteohub,2013-06-30 08:17:00,
2013-06-30 01:22:00,63.1,56.1,29.87,West,279,2.0,4.0,78,0.00,,,0.00,meteohub,2013-06-30 08:22:00,
2013-06-30 01:27:00,63.0,55.9,29.87,West,279,2.0,5.0,78,0.00,,,0.00,meteohub,2013-06-30 08:27:00,
2013-06-30 01:32:00,62.6,55.9,29.86,West,279,2.0,5.0,79,0.00,,,0.00,meteohub,2013-06-30 08:32:00,
2013-06-30 01:37:00,62.4,56.1,29.86,West,279,1.0,5.0,80,0.00,,,0.00,meteohub,2013-06-30 08:37:00,
2013-06-30 01:42:00,62.4,56.1,29.86,West,279,1.0,4.0,80,0.00,,,0.00,meteohub,2013-06-30 08:42:00,
2013-06-30 01:47:00,62.2,55.9,29.86,West,279,0.0,4.0,80,0.00,,,0.00,meteohub,2013-06-30 08:47:00,
2013-06-30 01:52:00,62.2,55.9,29.86,West,279,3.0,4.0,80,0.00,,,0.00,meteohub,2013-06-30 08:52:00,
2013-06-30 01:57:00,61.9,55.9,29.86,West,279,2.0,4.0,81,0.00,,,0.00,meteohub,2013-06-30 08:57:00,
2013-06-30 02:02:00,62.1,56.1,29.86,West,279,1.0,3.0,81,0.00,,,0.00,meteohub,2013-06-30 09:02:00,
2013-06-30 02:07:00,62.2,56.3,29.86,West,279,2.0,6.0,81,0.00,,,0.00,meteohub,2013-06-30 09:07:00,
2013-06-30 02:12:00,62.1,56.1,29.86,West,279,3.0,6.0,81,0.00,,,0.00,meteohub,2013-06-30 09:12:00,
2013-06-30 02:17:00,62.1,56.1,29.86,West,279,0.0,6.0,81,0.00,,,0.00,meteohub,2013-06-30 09:17:00,
2013-06-30 02:22:00,61.9,55.9,29.86,West,279,1.0,4.0,81,0.00,,,0.00,meteohub,2013-06-30 09:22:00,
2013-06-30 02:27:00,62.1,56.1,29.86,West,279,1.0,3.0,81,0.00,,,0.00,meteohub,2013-06-30 09:27:00,
2013-06-30 02:32:00,62.1,56.1,29.86,West,279,0.0,4.0,81,0.00,,,0.00,meteohub,2013-06-30 09:32:00,
2013-06-30 02:37:00,61.9,55.9,29.86,West,279,0.0,4.0,81,0.00,,,0.00,meteohub,2013-06-30 09:37:00,
2013-06-30 02:42:00,61.9,55.9,29.86,West,279,2.0,4.0,81,0.00,,,0.00,meteohub,2013-06-30 09:42:00,
2013-06-30 02:47:00,61.7,55.8,29.86,West,279,0.0,4.0,81,0.00,,,0.00,meteohub,2013-06-30 09:47:00,
2013-06-30 02:52:00,61.5,55.6,29.86,West,279,2.0,4.0,81,0.00,,,0.00,meteohub,2013-06-30 09:52:00,
2013-06-30 02:57:00,61.5,55.9,29.86,West,279,1.0,4.0,82,0.00,,,0.00,meteohub,2013-06-30 09:57:00,
2013-06-30 03:02:00,61.0,55.4,29.86,West,279,2.0,6.0,82,0.00,,,0.00,meteohub,2013-06-30 10:02:00,
2013-06-30 03:07:00,61.0,55.8,29.86,West,279,0.0,6.0,83,0.00,,,0.00,meteohub,2013-06-30 10:07:00,
2013-06-30 03:12:00,61.0,55.8,29.86,West,279,0.0,6.0,83,0.00,,,0.00,meteohub,2013-06-30 10:12:00,
2013-06-30 03:17:00,61.3,56.1,29.86,West,279,2.0,5.0,83,0.00,,,0.00,meteohub,2013-06-30 10:17:00,
2013-06-30 03:22:00,61.3,55.8,29.86,West,279,0.0,4.0,82,0.00,,,0.00,meteohub,2013-06-30 10:22:00,
2013-06-30 03:27:00,61.3,55.8,29.86,West,279,0.0,4.0,82,0.00,,,0.00,meteohub,2013-06-30 10:27:00,
2013-06-30 03:32:00,61.5,55.9,29.86,West,279,0.0,4.0,82,0.00,,,0.00,meteohub,2013-06-30 10:32:00,
2013-06-30 03:37:00,61.5,55.9,29.86,West,279,0.0,2.0,82,0.00,,,0.00,meteohub,2013-06-30 10:37:00,
2013-06-30 03:42:00,61.5,55.6,29.86,West,279,0.0,1.0,81,0.00,,,0.00,meteohub,2013-06-30 10:42:00,
2013-06-30 03:47:00,61.3,55.4,29.86,West,279,0.0,2.0,81,0.00,,,0.00,meteohub,2013-06-30 10:47:00,
2013-06-30 03:52:00,61.0,55.4,29.86,West,279,2.0,3.0,82,0.00,,,0.00,meteohub,2013-06-30 10:52:00,
2013-06-30 03:57:00,60.6,55.4,29.86,West,279,3.0,5.0,83,0.00,,,0.00,meteohub,2013-06-30 10:57:00,
2013-06-30 04:02:00,60.4,55.6,29.86,West,279,0.0,5.0,84,0.00,,,0.00,meteohub,2013-06-30 11:02:00,
2013-06-30 04:07:00,60.6,55.8,29.86,West,279,0.0,6.0,84,0.00,,,0.00,meteohub,2013-06-30 11:07:00,
2013-06-30 04:12:00,60.6,55.8,29.85,West,279,0.0,6.0,84,0.00,,,0.00,meteohub,2013-06-30 11:12:00,
2013-06-30 04:17:00,60.6,55.4,29.86,West,279,0.0,6.0,83,0.00,,,0.00,meteohub,2013-06-30 11:17:00,
2013-06-30 04:22:00,60.6,55.4,29.86,West,279,0.0,3.0,83,0.00,,,0.00,meteohub,2013-06-30 11:22:00,
2013-06-30 04:27:00,60.6,55.8,29.86,West,279,0.0,3.0,84,0.00,,,0.00,meteohub,2013-06-30 11:27:00,
2013-06-30 04:32:00,60.6,55.4,29.85,West,279,4.0,4.0,83,0.00,,,0.00,meteohub,2013-06-30 11:32:00,
2013-06-30 04:37:00,60.4,55.6,29.85,West,279,0.0,5.0,84,0.00,,,0.00,meteohub,2013-06-30 11:37:00,
2013-06-30 04:42:00,60.4,55.6,29.85,West,279,0.0,5.0,84,0.00,,,0.00,meteohub,2013-06-30 11:42:00,
2013-06-30 04:47:00,60.4,55.6,29.86,West,279,0.0,5.0,84,0.00,,,0.00,meteohub,2013-06-30 11:47:00,
2013-06-30 04:52:00,60.6,55.8,29.85,West,279,0.0,2.0,84,0.00,,,0.00,meteohub,2013-06-30 11:52:00,
2013-06-30 04:57:00,60.8,55.6,29.85,West,279,0.0,1.0,83,0.00,,,0.00,meteohub,2013-06-30 11:57:00,
2013-06-30 05:02:00,60.8,55.6,29.85,West,279,0.0,1.0,83,0.00,,,0.00,meteohub,2013-06-30 12:02:00,
2013-06-30 05:07:00,61.0,55.8,29.85,West,279,0.0,0.0,83,0.00,,,0.00,meteohub,2013-06-30 12:07:00,
2013-06-30 05:12:00,61.0,55.8,29.85,West,279,0.0,0.0,83,0.00,,,0.00,meteohub,2013-06-30 12:12:00,
2013-06-30 05:17:00,60.8,55.6,29.86,West,279,0.0,0.0,83,0.00,,,0.00,meteohub,2013-06-30 12:17:00,
2013-06-30 05:22:00,60.6,55.4,29.86,West,279,1.0,2.0,83,0.00,,,0.00,meteohub,2013-06-30 12:22:00,
2013-06-30 05:27:00,60.4,55.2,29.86,West,279,1.0,3.0,83,0.00,,,0.00,meteohub,2013-06-30 12:27:00,
2013-06-30 05:32:00,60.4,55.2,29.86,West,279,4.0,4.0,83,0.00,,,0.00,meteohub,2013-06-30 12:32:00,
2013-06-30 05:37:00,60.1,55.2,29.86,West,279,2.0,5.0,84,0.00,,,0.00,meteohub,2013-06-30 12:37:00,
2013-06-30 05:42:00,60.1,55.6,29.86,West,279,0.0,5.0,85,0.00,,,0.00,meteohub,2013-06-30 12:42:00,
2013-06-30 05:47:00,60.1,55.6,29.86,West,279,3.0,5.0,85,0.00,,,0.00,meteohub,2013-06-30 12:47:00,
2013-06-30 05:52:00,60.1,55.6,29.86,West,279,0.0,4.0,85,0.00,,,0.00,meteohub,2013-06-30 12:52:00,
2013-06-30 05:57:00,59.9,55.4,29.86,West,279,4.0,4.0,85,0.00,,,0.00,meteohub,2013-06-30 12:57:00,
2013-06-30 06:02:00,59.7,55.2,29.86,West,279,1.0,5.0,85,0.00,,,0.00,meteohub,2013-06-30 13:02:00,
2013-06-30 06:07:00,59.7,55.2,29.86,West,279,0.0,5.0,85,0.00,,,0.00,meteohub,2013-06-30 13:07:00,
2013-06-30 06:12:00,59.7,55.2,29.86,West,279,0.0,5.0,85,0.00,,,0.00,meteohub,2013-06-30 13:12:00,
2013-06-30 06:17:00,59.7,55.2,29.87,West,279,0.0,5.0,85,0.00,,,0.00,meteohub,2013-06-30 13:17:00,
2013-06-30 06:22:00,59.7,55.2,29.87,West,278,2.0,5.0,85,0.00,,,0.00,meteohub,2013-06-30 13:22:00,
2013-06-30 06:27:00,59.5,55.0,29.87,West,278,1.0,4.0,85,0.00,,,0.00,meteohub,2013-06-30 13:27:00,
2013-06-30 06:32:00,59.5,55.4,29.87,West,278,2.0,4.0,86,0.00,,,0.00,meteohub,2013-06-30 13:32:00,
2013-06-30 06:37:00,59.5,55.4,29.87,West,278,1.0,4.0,86,0.00,,,0.00,meteohub,2013-06-30 13:37:00,
2013-06-30 06:42:00,59.7,55.6,29.87,West,278,2.0,5.0,86,0.00,,,0.00,meteohub,2013-06-30 13:42:00,
2013-06-30 06:47:00,60.1,55.6,29.87,West,278,0.0,5.0,85,0.00,,,0.00,meteohub,2013-06-30 13:47:00,
2013-06-30 06:52:00,60.3,56.1,29.87,West,278,1.0,5.0,86,0.00,,,0.00,meteohub,2013-06-30 13:52:00,
2013-06-30 06:57:00,60.6,56.1,29.87,West,278,0.0,5.0,85,0.00,,,0.00,meteohub,2013-06-30 13:57:00,
2013-06-30 07:02:00,61.0,56.1,29.87,West,278,0.0,5.0,84,0.00,,,0.00,meteohub,2013-06-30 14:02:00,
2013-06-30 07:07:00,61.3,56.5,29.87,West,278,1.0,5.0,84,0.00,,,0.00,meteohub,2013-06-30 14:07:00,
2013-06-30 07:12:00,61.7,56.1,29.87,West,278,0.0,3.0,82,0.00,,,0.00,meteohub,2013-06-30 14:12:00,
2013-06-30 07:17:00,62.1,56.5,29.87,West,278,0.0,3.0,82,0.00,,,0.00,meteohub,2013-06-30 14:17:00,
2013-06-30 07:22:00,62.4,56.5,29.87,West,278,0.0,3.0,81,0.00,,,0.00,meteohub,2013-06-30 14:22:00,
2013-06-30 07:27:00,63.0,56.7,29.87,West,278,0.0,2.0,80,0.00,,,0.00,meteohub,2013-06-30 14:27:00,
2013-06-30 07:32:00,63.7,57.0,29.87,West,278,1.0,2.0,79,0.00,,,0.00,meteohub,2013-06-30 14:32:00,
2013-06-30 07:37:00,64.0,56.7,29.87,West,278,2.0,2.0,77,0.00,,,0.00,meteohub,2013-06-30 14:37:00,
2013-06-30 07:42:00,63.5,56.1,29.87,West,278,0.0,4.0,77,0.00,,,0.00,meteohub,2013-06-30 14:42:00,
2013-06-30 07:47:00,63.7,56.7,29.87,West,278,0.0,5.0,78,0.00,,,0.00,meteohub,2013-06-30 14:47:00,
2013-06-30 07:52:00,64.0,56.7,29.87,West,278,1.0,5.0,77,0.00,,,0.00,meteohub,2013-06-30 14:52:00,
2013-06-30 07:57:00,64.2,56.8,29.87,West,278,0.0,3.0,77,0.00,,,0.00,meteohub,2013-06-30 14:57:00,
2013-06-30 08:02:00,64.8,57.0,29.87,West,278,1.0,4.0,76,0.00,,,0.00,meteohub,2013-06-30 15:02:00,
2013-06-30 08:07:00,65.3,57.2,29.87,West,278,0.0,4.0,75,0.00,,,0.00,meteohub,2013-06-30 15:07:00,
2013-06-30 08:12:00,65.7,57.2,29.87,West,278,1.0,4.0,74,0.00,,,0.00,meteohub,2013-06-30 15:12:00,
2013-06-30 08:17:00,65.8,57.4,29.87,West,279,0.0,3.0,74,0.00,,,0.00,meteohub,2013-06-30 15:17:00,
2013-06-30 08:22:00,66.4,57.4,29.87,West,279,0.0,3.0,73,0.00,,,0.00,meteohub,2013-06-30 15:22:00,
2013-06-30 08:27:00,67.1,57.7,29.87,West,279,0.0,3.0,72,0.00,,,0.00,meteohub,2013-06-30 15:27:00,
2013-06-30 08:32:00,67.6,57.9,29.87,West,279,0.0,3.0,71,0.00,,,0.00,meteohub,2013-06-30 15:32:00,
2013-06-30 08:37:00,67.8,57.7,29.87,West,279,2.0,2.0,70,0.00,,,0.00,meteohub,2013-06-30 15:37:00,
2013-06-30 08:42:00,67.5,57.4,29.87,West,279,2.0,5.0,70,0.00,,,0.00,meteohub,2013-06-30 15:42:00,
2013-06-30 08:47:00,67.3,57.6,29.87,ENE,59,0.0,5.0,71,0.00,,,0.00,meteohub,2013-06-30 15:47:00,
2013-06-30 08:52:00,68.2,58.5,29.88,ENE,59,0.0,5.0,71,0.00,,,0.00,meteohub,2013-06-30 15:52:00,
2013-06-30 08:57:00,68.7,58.1,29.87,ENE,59,0.0,4.0,69,0.00,,,0.00,meteohub,2013-06-30 15:57:00,
2013-06-30 09:02:00,69.4,58.5,29.87,ENE,59,1.0,2.0,68,0.00,,,0.00,meteohub,2013-06-30 16:02:00,
2013-06-30 09:07:00,69.4,57.6,29.87,ENE,62,3.0,3.0,66,0.00,,,0.00,meteohub,2013-06-30 16:07:00,
2013-06-30 09:12:00,68.4,57.7,29.87,ENE,61,1.0,7.0,69,0.00,,,0.00,meteohub,2013-06-30 16:12:00,
2013-06-30 09:17:00,68.5,57.6,29.87,ENE,63,1.0,7.0,68,0.00,,,0.00,meteohub,2013-06-30 16:17:00,
2013-06-30 09:22:00,68.9,57.9,29.87,ENE,62,1.0,7.0,68,0.00,,,0.00,meteohub,2013-06-30 16:22:00,
2013-06-30 09:27:00,69.3,57.9,29.87,ENE,63,2.0,7.0,67,0.00,,,0.00,meteohub,2013-06-30 16:27:00,
2013-06-30 09:32:00,69.1,57.7,29.87,ENE,67,4.0,7.0,67,0.00,,,0.00,meteohub,2013-06-30 16:32:00,
2013-06-30 09:37:00,68.7,57.7,29.87,ENE,67,4.0,8.0,68,0.00,,,0.00,meteohub,2013-06-30 16:37:00,
2013-06-30 09:47:00,69.4,57.6,29.87,ENE,67,3.0,8.0,66,0.00,,,0.00,meteohub,2013-06-30 16:47:00,
2013-06-30 09:52:00,69.4,57.6,29.87,ENE,67,3.0,7.0,66,0.00,,,0.00,meteohub,2013-06-30 16:52:00,
2013-06-30 09:57:00,70.0,58.1,29.87,ENE,65,1.0,7.0,66,0.00,,,0.00,meteohub,2013-06-30 16:57:00,
2013-06-30 10:02:00,71.1,58.3,29.87,ENE,66,3.0,7.0,64,0.00,,,0.00,meteohub,2013-06-30 17:02:00,
2013-06-30 10:07:00,71.4,58.1,29.86,ENE,66,5.0,7.0,63,0.00,,,0.00,meteohub,2013-06-30 17:07:00,
2013-06-30 10:12:00,71.8,58.5,29.87,ENE,64,0.0,7.0,63,0.00,,,0.00,meteohub,2013-06-30 17:12:00,
2013-06-30 10:17:00,72.5,58.3,29.87,WNW,284,0.0,7.0,61,0.00,,,0.00,meteohub,2013-06-30 17:17:00,
2013-06-30 10:22:00,73.6,58.3,29.87,WNW,300,0.0,5.0,59,0.00,,,0.00,meteohub,2013-06-30 17:22:00,
2013-06-30 10:27:00,74.5,58.8,29.87,West,281,1.0,2.0,58,0.00,,,0.00,meteohub,2013-06-30 17:27:00,
2013-06-30 10:32:00,74.5,58.3,29.86,West,279,0.0,3.0,57,0.00,,,0.00,meteohub,2013-06-30 17:32:00,
2013-06-30 10:37:00,74.1,58.5,29.87,West,279,0.0,3.0,58,0.00,,,0.00,meteohub,2013-06-30 17:37:00,
2013-06-30 10:42:00,73.9,58.3,29.86,WNW,298,1.0,4.0,58,0.00,,,0.00,meteohub,2013-06-30 17:42:00,
2013-06-30 10:47:00,73.6,58.3,29.86,West,279,1.0,4.0,59,0.00,,,0.00,meteohub,2013-06-30 17:47:00,
2013-06-30 10:52:00,73.0,58.3,29.87,NE,49,2.0,4.0,60,0.00,,,0.00,meteohub,2013-06-30 17:52:00,
2013-06-30 10:57:00,72.9,58.1,29.87,WNW,296,1.0,4.0,60,0.00,,,0.00,meteohub,2013-06-30 17:57:00,
2013-06-30 11:02:00,73.0,58.3,29.87,NNE,33,2.0,4.0,60,0.00,,,0.00,meteohub,2013-06-30 18:02:00,
2013-06-30 11:07:00,73.0,58.3,29.87,WNW,302,2.0,5.0,60,0.00,,,0.00,meteohub,2013-06-30 18:07:00,
2013-06-30 11:12:00,72.7,57.9,29.87,ENE,67,1.0,5.0,60,0.00,,,0.00,meteohub,2013-06-30 18:12:00,
2013-06-30 11:17:00,72.1,57.9,29.87,West,279,2.0,6.0,61,0.00,,,0.00,meteohub,2013-06-30 18:17:00,
2013-06-30 11:22:00,72.0,58.3,29.87,West,279,2.0,6.0,62,0.00,,,0.00,meteohub,2013-06-30 18:22:00,
2013-06-30 11:27:00,72.1,57.9,29.87,West,279,2.0,6.0,61,0.00,,,0.00,meteohub,2013-06-30 18:27:00,
2013-06-30 11:32:00,72.0,57.7,29.87,West,279,2.0,6.0,61,0.00,,,0.00,meteohub,2013-06-30 18:32:00,
2013-06-30 11:37:00,71.8,58.1,29.87,West,279,0.0,7.0,62,0.00,,,0.00,meteohub,2013-06-30 18:37:00,
2013-06-30 11:42:00,71.4,57.7,29.87,West,279,1.0,8.0,62,0.00,,,0.00,meteohub,2013-06-30 18:42:00,
2013-06-30 11:47:00,71.2,57.9,29.87,West,279,2.0,10.0,63,0.00,,,0.00,meteohub,2013-06-30 18:47:00,
2013-06-30 11:52:00,71.1,58.3,29.87,West,279,4.0,10.0,64,0.00,,,0.00,meteohub,2013-06-30 18:52:00,
2013-06-30 11:57:00,70.3,57.6,29.87,West,279,4.0,10.0,64,0.00,,,0.00,meteohub,2013-06-30 18:57:00,
2013-06-30 12:02:00,69.4,57.6,29.87,ENE,63,2.0,9.0,66,0.00,,,0.00,meteohub,2013-06-30 19:02:00,
2013-06-30 12:07:00,69.3,57.9,29.87,West,279,4.0,9.0,67,0.00,,,0.00,meteohub,2013-06-30 19:07:00,
2013-06-30 12:12:00,69.6,57.7,29.86,NE,40,4.0,12.0,66,0.00,,,0.00,meteohub,2013-06-30 19:12:00,
2013-06-30 12:17:00,69.6,57.7,29.86,West,279,4.0,12.0,66,0.00,,,0.00,meteohub,2013-06-30 19:17:00,
2013-06-30 12:22:00,69.4,57.6,29.86,West,279,6.0,12.0,66,0.00,,,0.00,meteohub,2013-06-30 19:22:00,
2013-06-30 12:27:00,69.4,57.6,29.86,West,279,2.0,10.0,66,0.00,,,0.00,meteohub,2013-06-30 19:27:00,
2013-06-30 12:32:00,69.8,57.9,29.86,West,279,2.0,10.0,66,0.00,,,0.00,meteohub,2013-06-30 19:32:00,
2013-06-30 12:37:00,70.2,58.3,29.86,ENE,63,3.0,7.0,66,0.00,,,0.00,meteohub,2013-06-30 19:37:00,
2013-06-30 12:42:00,70.5,57.7,29.86,WNW,284,1.0,8.0,64,0.00,,,0.00,meteohub,2013-06-30 19:42:00,
2013-06-30 12:47:00,70.3,57.6,29.86,North,355,5.0,8.0,64,0.00,,,0.00,meteohub,2013-06-30 19:47:00,
2013-06-30 12:52:00,70.5,58.1,29.86,West,279,3.0,8.0,65,0.00,,,0.00,meteohub,2013-06-30 19:52:00,
2013-06-30 12:57:00,70.2,57.9,29.86,West,279,1.0,8.0,65,0.00,,,0.00,meteohub,2013-06-30 19:57:00,
2013-06-30 13:07:00,69.4,57.6,29.86,ENE,63,5.0,10.0,66,0.00,,,0.00,meteohub,2013-06-30 20:07:00,
2013-06-30 13:12:00,69.6,58.1,29.86,West,279,7.0,10.0,67,0.00,,,0.00,meteohub,2013-06-30 20:12:00,
2013-06-30 13:17:00,69.4,57.9,29.86,West,279,10.0,10.0,67,0.00,,,0.00,meteohub,2013-06-30 20:17:00,
2013-06-30 13:22:00,68.9,57.9,29.86,ENE,76,5.0,11.0,68,0.00,,,0.00,meteohub,2013-06-30 20:22:00,
2013-06-30 13:27:00,68.4,57.7,29.86,West,279,10.0,11.0,69,0.00,,,0.00,meteohub,2013-06-30 20:27:00,
2013-06-30 13:32:00,67.6,57.9,29.86,West,279,6.0,14.0,71,0.00,,,0.00,meteohub,2013-06-30 20:32:00,
2013-06-30 13:37:00,67.8,57.7,29.85,NW,309,7.0,14.0,70,0.00,,,0.00,meteohub,2013-06-30 20:37:00,
2013-06-30 13:42:00,67.8,57.7,29.86,WNW,289,5.0,14.0,70,0.00,,,0.00,meteohub,2013-06-30 20:42:00,
2013-06-30 13:47:00,68.2,58.1,29.85,West,279,4.0,10.0,70,0.00,,,0.00,meteohub,2013-06-30 20:47:00,
2013-06-30 13:52:00,68.5,57.9,29.85,West,278,5.0,10.0,69,0.00,,,0.00,meteohub,2013-06-30 20:52:00,
2013-06-30 13:57:00,69.1,58.1,29.86,West,279,6.0,10.0,68,0.00,,,0.00,meteohub,2013-06-30 20:57:00,
2013-06-30 14:02:00,69.8,58.3,29.86,West,279,5.0,10.0,67,0.00,,,0.00,meteohub,2013-06-30 21:02:00,
2013-06-30 14:07:00,69.6,58.1,29.85,West,279,4.0,8.0,67,0.00,,,0.00,meteohub,2013-06-30 21:07:00,
2013-06-30 14:12:00,69.4,57.9,29.85,West,279,5.0,9.0,67,0.00,,,0.00,meteohub,2013-06-30 21:12:00,
2013-06-30 14:17:00,69.4,57.9,29.85,WNW,302,4.0,9.0,67,0.00,,,0.00,meteohub,2013-06-30 21:17:00,
2013-06-30 14:22:00,68.5,57.6,29.85,West,279,4.0,11.0,68,0.00,,,0.00,meteohub,2013-06-30 21:22:00,
2013-06-30 14:32:00,67.6,57.6,29.85,WNW,292,9.0,12.0,70,0.00,,,0.00,meteohub,2013-06-30 21:32:00,
2013-06-30 14:37:00,67.8,57.7,29.85,West,279,5.0,12.0,70,0.00,,,0.00,meteohub,2013-06-30 21:37:00,
2013-06-30 14:42:00,68.2,58.1,29.85,North,5,5.0,11.0,70,0.00,,,0.00,meteohub,2013-06-30 21:42:00,
2013-06-30 14:47:00,68.9,58.3,29.85,NE,44,3.0,11.0,69,0.00,,,0.00,meteohub,2013-06-30 21:47:00,
2013-06-30 14:52:00,69.6,58.6,29.84,West,279,3.0,9.0,68,0.00,,,0.00,meteohub,2013-06-30 21:52:00,
2013-06-30 14:57:00,70.2,58.6,29.84,West,279,2.0,7.0,67,0.00,,,0.00,meteohub,2013-06-30 21:57:00,
2013-06-30 15:02:00,70.5,58.6,29.84,WNW,283,5.0,7.0,66,0.00,,,0.00,meteohub,2013-06-30 22:02:00,
2013-06-30 15:07:00,70.5,58.1,29.84,NW,325,4.0,11.0,65,0.00,,,0.00,meteohub,2013-06-30 22:07:00,
2013-06-30 15:12:00,70.0,58.5,29.84,West,279,7.0,11.0,67,0.00,,,0.00,meteohub,2013-06-30 22:12:00,
2013-06-30 15:17:00,69.3,58.3,29.84,West,279,3.0,11.0,68,0.00,,,0.00,meteohub,2013-06-30 22:17:00,
2013-06-30 15:22:00,68.7,57.7,29.84,West,279,5.0,12.0,68,0.00,,,0.00,meteohub,2013-06-30 22:22:00,
2013-06-30 15:27:00,68.4,57.7,29.84,WNW,286,4.0,12.0,69,0.00,,,0.00,meteohub,2013-06-30 22:27:00,
2013-06-30 15:32:00,68.2,58.1,29.84,West,279,5.0,12.0,70,0.00,,,0.00,meteohub,2013-06-30 22:32:00,
2013-06-30 15:37:00,68.2,58.1,29.84,WNW,284,4.0,11.0,70,0.00,,,0.00,meteohub,2013-06-30 22:37:00,
2013-06-30 15:42:00,68.4,58.3,29.84,West,279,3.0,11.0,70,0.00,,,0.00,meteohub,2013-06-30 22:42:00,
2013-06-30 15:47:00,68.7,58.1,29.84,WNW,284,3.0,11.0,69,0.00,,,0.00,meteohub,2013-06-30 22:47:00,
2013-06-30 15:52:00,69.3,58.3,29.84,WNW,295,3.0,10.0,68,0.00,,,0.00,meteohub,2013-06-30 22:52:00,
2013-06-30 15:57:00,69.4,57.9,29.84,West,279,4.0,9.0,67,0.00,,,0.00,meteohub,2013-06-30 22:57:00,
2013-06-30 16:02:00,69.6,58.1,29.83,East,93,8.0,9.0,67,0.00,,,0.00,meteohub,2013-06-30 23:02:00,
2013-06-30 16:07:00,69.4,57.9,29.83,ENE,65,3.0,9.0,67,0.00,,,0.00,meteohub,2013-06-30 23:07:00,
2013-06-30 16:12:00,68.9,57.9,29.83,West,279,3.0,10.0,68,0.00,,,0.00,meteohub,2013-06-30 23:12:00,
2013-06-30 16:17:00,68.7,57.7,29.83,West,279,6.0,10.0,68,0.00,,,0.00,meteohub,2013-06-30 23:17:00,
2013-06-30 16:22:00,67.8,57.2,29.83,West,279,9.0,11.0,69,0.00,,,0.00,meteohub,2013-06-30 23:22:00,
2013-06-30 16:27:00,67.3,57.6,29.83,WNW,290,3.0,12.0,71,0.00,,,0.00,meteohub,2013-06-30 23:27:00,
2013-06-30 16:32:00,67.1,57.4,29.83,West,279,4.0,12.0,71,0.00,,,0.00,meteohub,2013-06-30 23:32:00,
2013-06-30 16:37:00,67.1,57.4,29.83,West,279,6.0,12.0,71,0.00,,,0.00,meteohub,2013-06-30 23:37:00,
2013-06-30 16:42:00,66.7,57.4,29.83,West,279,5.0,16.0,72,0.00,,,0.00,meteohub,2013-06-30 23:42:00,
2013-06-30 16:47:00,66.6,57.2,29.83,ENE,74,7.0,16.0,72,0.00,,,0.00,meteohub,2013-06-30 23:47:00,
2013-06-30 16:52:00,66.6,57.6,29.82,West,279,4.0,16.0,73,0.00,,,0.00,meteohub,2013-06-30 23:52:00,
2013-06-30 16:57:00,66.7,57.4,29.82,West,279,4.0,14.0,72,0.00,,,0.00,meteohub,2013-06-30 23:57:00,
2013-06-30 17:02:00,66.9,57.6,29.83,West,279,4.0,14.0,72,0.00,,,0.00,meteohub,2013-07-01 00:02:00,
2013-06-30 17:07:00,67.1,57.7,29.83,West,279,6.0,10.0,72,0.00,,,0.00,meteohub,2013-07-01 00:07:00,
2013-06-30 17:12:00,66.9,57.6,29.83,West,279,6.0,12.0,72,0.00,,,0.00,meteohub,2013-07-01 00:12:00,
2013-06-30 17:17:00,66.7,57.4,29.83,West,279,5.0,12.0,72,0.00,,,0.00,meteohub,2013-07-01 00:17:00,
2013-06-30 17:22:00,66.7,57.4,29.82,West,279,4.0,12.0,72,0.00,,,0.00,meteohub,2013-07-01 00:22:00,
2013-06-30 17:27:00,66.9,57.6,29.82,West,279,4.0,9.0,72,0.00,,,0.00,meteohub,2013-07-01 00:27:00,
2013-06-30 17:32:00,66.7,57.4,29.83,East,96,9.0,9.0,72,0.00,,,0.00,meteohub,2013-07-01 00:32:00,
2013-06-30 17:37:00,66.4,57.0,29.82,West,279,6.0,11.0,72,0.00,,,0.00,meteohub,2013-07-01 00:37:00,
2013-06-30 17:42:00,66.6,57.2,29.82,West,279,2.0,11.0,72,0.00,,,0.00,meteohub,2013-07-01 00:42:00,
2013-06-30 17:47:00,66.6,57.2,29.81,WNW,284,5.0,11.0,72,0.00,,,0.00,meteohub,2013-07-01 00:47:00,
2013-06-30 17:52:00,66.2,57.2,29.82,NE,50,4.0,9.0,73,0.00,,,0.00,meteohub,2013-07-01 00:52:00,
2013-06-30 17:57:00,66.0,57.2,29.82,WNW,286,3.0,9.0,73,0.00,,,0.00,meteohub,2013-07-01 00:57:00,
2013-06-30 18:02:00,66.4,57.4,29.82,West,279,3.0,9.0,73,0.00,,,0.00,meteohub,2013-07-01 01:02:00,
2013-06-30 18:07:00,66.0,57.2,29.82,West,279,3.0,9.0,73,0.00,,,0.00,meteohub,2013-07-01 01:07:00,
2013-06-30 18:12:00,66.0,57.2,29.81,West,279,4.0,10.0,73,0.00,,,0.00,meteohub,2013-07-01 01:12:00,
2013-06-30 18:17:00,66.0,57.6,29.81,West,279,3.0,10.0,74,0.00,,,0.00,meteohub,2013-07-01 01:17:00,
2013-06-30 18:22:00,66.0,57.6,29.81,NNW,343,1.0,10.0,74,0.00,,,0.00,meteohub,2013-07-01 01:22:00,
2013-06-30 18:27:00,65.8,57.4,29.81,West,279,5.0,11.0,74,0.00,,,0.00,meteohub,2013-07-01 01:27:00,
2013-06-30 18:32:00,65.7,57.6,29.81,WNW,289,3.0,11.0,75,0.00,,,0.00,meteohub,2013-07-01 01:32:00,
2013-06-30 18:37:00,65.5,57.4,29.81,West,279,2.0,11.0,75,0.00,,,0.00,meteohub,2013-07-01 01:37:00,
2013-06-30 18:42:00,65.7,57.6,29.81,NNE,24,4.0,10.0,75,0.00,,,0.00,meteohub,2013-07-01 01:42:00,
2013-06-30 18:47:00,65.1,57.0,29.81,West,279,2.0,11.0,75,0.00,,,0.00,meteohub,2013-07-01 01:47:00,
2013-06-30 18:52:00,64.8,57.0,29.81,West,279,6.0,11.0,76,0.00,,,0.00,meteohub,2013-07-01 01:52:00,
2013-06-30 18:57:00,64.2,56.5,29.81,West,279,4.0,11.0,76,0.00,,,0.00,meteohub,2013-07-01 01:57:00,
2013-06-30 19:02:00,64.2,56.8,29.81,West,279,2.0,11.0,77,0.00,,,0.00,meteohub,2013-07-01 02:02:00,
2013-06-30 19:07:00,64.0,56.7,29.81,West,279,5.0,11.0,77,0.00,,,0.00,meteohub,2013-07-01 02:07:00,
2013-06-30 19:12:00,64.0,57.0,29.81,West,279,6.0,14.0,78,0.00,,,0.00,meteohub,2013-07-01 02:12:00,
2013-06-30 19:17:00,63.7,56.7,29.81,West,279,6.0,14.0,78,0.00,,,0.00,meteohub,2013-07-01 02:17:00,
2013-06-30 19:22:00,63.3,56.7,29.81,West,279,5.0,14.0,79,0.00,,,0.00,meteohub,2013-07-01 02:22:00,
2013-06-30 19:27:00,63.1,56.5,29.81,West,279,5.0,13.0,79,0.00,,,0.00,meteohub,2013-07-01 02:27:00,
2013-06-30 19:32:00,63.1,56.5,29.81,West,279,3.0,13.0,79,0.00,,,0.00,meteohub,2013-07-01 02:32:00,
2013-06-30 19:37:00,63.0,56.7,29.81,West,279,4.0,11.0,80,0.00,,,0.00,meteohub,2013-07-01 02:37:00,
2013-06-30 19:42:00,63.0,56.7,29.81,West,278,4.0,11.0,80,0.00,,,0.00,meteohub,2013-07-01 02:42:00,
2013-06-30 19:47:00,62.8,56.5,29.81,West,279,1.0,11.0,80,0.00,,,0.00,meteohub,2013-07-01 02:47:00,
2013-06-30 19:52:00,62.4,56.1,29.81,West,279,5.0,11.0,80,0.00,,,0.00,meteohub,2013-07-01 02:52:00,
2013-06-30 19:57:00,62.4,56.5,29.81,WNW,285,4.0,9.0,81,0.00,,,0.00,meteohub,2013-07-01 02:57:00,
2013-06-30 20:02:00,62.6,56.7,29.81,West,279,4.0,9.0,81,0.00,,,0.00,meteohub,2013-07-01 03:02:00,
2013-06-30 20:07:00,62.4,56.5,29.81,NW,313,3.0,7.0,81,0.00,,,0.00,meteohub,2013-07-01 03:07:00,
2013-06-30 20:12:00,62.2,56.3,29.81,West,279,7.0,9.0,81,0.00,,,0.00,meteohub,2013-07-01 03:12:00,
2013-06-30 20:17:00,62.2,56.3,29.81,West,279,3.0,9.0,81,0.00,,,0.00,meteohub,2013-07-01 03:17:00,
2013-06-30 20:22:00,62.1,56.1,29.81,West,279,6.0,9.0,81,0.00,,,0.00,meteohub,2013-07-01 03:22:00,
2013-06-30 20:27:00,62.1,56.1,29.81,West,279,4.0,9.0,81,0.00,,,0.00,meteohub,2013-07-01 03:27:00,
2013-06-30 20:32:00,61.9,56.3,29.81,WNW,291,4.0,9.0,82,0.00,,,0.00,meteohub,2013-07-01 03:32:00,
2013-06-30 20:37:00,61.7,56.1,29.82,ENE,61,4.0,10.0,82,0.00,,,0.00,meteohub,2013-07-01 03:37:00,
2013-06-30 20:42:00,61.7,56.1,29.81,West,279,3.0,10.0,82,0.00,,,0.00,meteohub,2013-07-01 03:42:00,
2013-06-30 20:47:00,61.5,56.3,29.81,West,279,4.0,10.0,83,0.00,,,0.00,meteohub,2013-07-01 03:47:00,
2013-06-30 20:52:00,61.3,56.1,29.81,West,279,3.0,11.0,83,0.00,,,0.00,meteohub,2013-07-01 03:52:00,
2013-06-30 20:57:00,61.3,56.1,29.81,West,279,1.0,11.0,83,0.00,,,0.00,meteohub,2013-07-01 03:57:00,
2013-06-30 21:02:00,61.2,55.9,29.82,West,279,8.0,11.0,83,0.00,,,0.00,meteohub,2013-07-01 04:02:00,
2013-06-30 21:07:00,61.0,55.8,29.82,West,279,2.0,11.0,83,0.00,,,0.00,meteohub,2013-07-01 04:07:00,
2013-06-30 21:12:00,60.8,55.9,29.82,West,279,1.0,11.0,84,0.00,,,0.00,meteohub,2013-07-01 04:12:00,
2013-06-30 21:17:00,60.8,55.9,29.82,NW,311,5.0,11.0,84,0.00,,,0.00,meteohub,2013-07-01 04:17:00,
2013-06-30 21:22:00,60.6,55.8,29.82,West,279,2.0,10.0,84,0.00,,,0.00,meteohub,2013-07-01 04:22:00,
2013-06-30 21:27:00,60.6,55.8,29.82,West,279,2.0,10.0,84,0.00,,,0.00,meteohub,2013-07-01 04:27:00,
2013-06-30 21:32:00,60.8,55.9,29.83,West,278,5.0,10.0,84,0.00,,,0.00,meteohub,2013-07-01 04:32:00,
2013-06-30 21:37:00,60.6,55.8,29.83,West,279,3.0,10.0,84,0.00,,,0.00,meteohub,2013-07-01 04:37:00,
2013-06-30 21:42:00,60.6,55.8,29.83,ENE,63,3.0,10.0,84,0.00,,,0.00,meteohub,2013-07-01 04:42:00,
2013-06-30 21:47:00,60.6,55.8,29.83,West,279,3.0,8.0,84,0.00,,,0.00,meteohub,2013-07-01 04:47:00,
2013-06-30 21:52:00,60.6,55.8,29.83,West,279,5.0,7.0,84,0.00,,,0.00,meteohub,2013-07-01 04:52:00,
2013-06-30 21:57:00,60.6,55.8,29.84,West,279,5.0,11.0,84,0.00,,,0.00,meteohub,2013-07-01 04:57:00,
2013-06-30 22:02:00,60.6,56.1,29.84,WNW,285,3.0,11.0,85,0.00,,,0.00,meteohub,2013-07-01 05:02:00,
2013-06-30 22:07:00,60.6,55.8,29.84,WNW,299,3.0,11.0,84,0.00,,,0.00,meteohub,2013-07-01 05:07:00,
2013-06-30 22:12:00,60.8,55.9,29.84,West,279,2.0,7.0,84,0.00,,,0.00,meteohub,2013-07-01 05:12:00,
2013-06-30 22:17:00,60.6,55.8,29.84,NW,319,2.0,7.0,84,0.00,,,0.00,meteohub,2013-07-01 05:17:00,
2013-06-30 22:22:00,60.6,55.8,29.84,West,279,4.0,6.0,84,0.00,,,0.00,meteohub,2013-07-01 05:22:00,
2013-06-30 22:27:00,60.6,55.8,29.84,West,279,2.0,6.0,84,0.00,,,0.00,meteohub,2013-07-01 05:27:00,
2013-06-30 22:32:00,60.6,55.8,29.85,West,279,0.0,6.0,84,0.00,,,0.00,meteohub,2013-07-01 05:32:00,
2013-06-30 22:37:00,60.6,55.8,29.84,West,279,2.0,6.0,84,0.00,,,0.00,meteohub,2013-07-01 05:37:00,
2013-06-30 22:42:00,60.6,55.8,29.84,West,279,3.0,5.0,84,0.00,,,0.00,meteohub,2013-07-01 05:42:00,
2013-06-30 22:47:00,60.4,55.6,29.84,West,279,0.0,7.0,84,0.00,,,0.00,meteohub,2013-07-01 05:47:00,
2013-06-30 22:52:00,60.6,55.8,29.84,West,279,0.0,7.0,84,0.00,,,0.00,meteohub,2013-07-01 05:52:00,
2013-06-30 22:57:00,60.6,55.8,29.84,West,279,0.0,7.0,84,0.00,,,0.00,meteohub,2013-07-01 05:57:00,
2013-06-30 23:02:00,60.6,55.8,29.84,West,279,0.0,4.0,84,0.00,,,0.00,meteohub,2013-07-01 06:02:00,
2013-06-30 23:07:00,60.4,55.6,29.84,West,279,0.0,4.0,84,0.00,,,0.00,meteohub,2013-07-01 06:07:00,
2013-06-30 23:12:00,60.4,55.6,29.84,West,279,0.0,4.0,84,0.00,,,0.00,meteohub,2013-07-01 06:12:00,
2013-06-30 23:17:00,60.4,55.6,29.84,West,279,0.0,4.0,84,0.00,,,0.00,meteohub,2013-07-01 06:17:00,
2013-06-30 23:22:00,60.4,55.6,29.84,West,279,0.0,4.0,84,0.00,,,0.00,meteohub,2013-07-01 06:22:00,
2013-06-30 23:27:00,60.4,55.6,29.84,West,279,1.0,4.0,84,0.00,,,0.00,meteohub,2013-07-01 06:27:00,
2013-06-30 23:32:00,60.4,55.6,29.84,West,279,1.0,2.0,84,0.00,,,0.00,meteohub,2013-07-01 06:32:00,
2013-06-30 23:37:00,60.4,55.6,29.84,West,279,0.0,3.0,84,0.00,,,0.00,meteohub,2013-07-01 06:37:00,
2013-06-30 23:42:00,60.4,55.6,29.84,West,279,0.0,3.0,84,0.00,,,0.00,meteohub,2013-07-01 06:42:00,
2013-06-30 23:47:00,60.4,55.9,29.84,West,279,0.0,3.0,85,0.00,,,0.00,meteohub,2013-07-01 06:47:00,
2013-06-30 23:52:00,60.4,55.9,29.84,West,279,0.0,2.0,85,0.00,,,0.00,meteohub,2013-07-01 06:52:00,
2013-06-30 23:57:00,60.3,55.8,29.84,West,279,0.0,2.0,85,0.00,,,0.00,meteohub,2013-07-01 06:57:00,